« Back
NWS Peachtree City, Ga » Text Product » AHN Terminal Aerodrome Forecast


Printer-friendly Version
Current Version              Previous Versions:   1  2  3  4  5  6  7  8  9  

Terminal Aerodrome Forecast

861
FTUS42 KFFC 252300
TAFAHN
TAF
KAHN 252333Z 2600/2624 31005KT P6SM SKC
     FM260300 29003KT P6SM SCT025
     FM261400 30006KT P6SM FEW250
     FM262300 00000KT P6SM SKC=



USA.gov is the U.S. government's official web portal to all federal, state and local government web resources and services.